Time;durP1;ratioP1;P1;durP2;ratioP2;P2;SDS_P1;SDS_P2;PMS_P1;PMS_P2;Temp;Humidity;BMP_temperature;BMP_pressure;BME280_temperature;BME280_humidity;BME280_pressure;Samples;Min_cycle;Max_cycle;Signal;HPM_P1;HPM_P2
2022/06/04 00:00:51;;;;;;;8.30;5.70;;;17.20;99.90;;;;;;5093177;28;20558;-53
2022/06/04 00:03:17;;;;;;;7.75;6.10;;;17.30;99.90;;;;;;5094438;28;20099;-53
2022/06/04 00:05:47;;;;;;;12.52;5.43;;;17.30;99.90;;;;;;5094837;28;20077;-50
2022/06/04 00:08:13;;;;;;;6.85;5.68;;;17.40;99.90;;;;;;5094593;28;20562;-52
2022/06/04 00:16:11;;;;;;;6.70;5.78;;;17.30;99.90;;;;;;5094755;28;20066;-54
2022/06/04 00:18:39;;;;;;;8.65;6.30;;;17.30;99.90;;;;;;5094456;28;20027;-54
2022/06/04 00:21:05;;;;;;;13.40;5.60;;;17.30;99.90;;;;;;5071531;28;20044;-52
2022/06/04 00:23:31;;;;;;;12.02;7.25;;;17.20;99.90;;;;;;5074027;28;20028;-53
2022/06/04 00:25:59;;;;;;;12.98;6.65;;;17.20;99.90;;;;;;5073903;28;20036;-53
2022/06/04 00:28:26;;;;;;;8.23;6.35;;;17.10;99.90;;;;;;5074117;28;20020;-54
2022/06/04 00:30:53;;;;;;;10.65;7.07;;;17.10;99.90;;;;;;5092816;28;20394;-55
2022/06/04 00:33:19;;;;;;;8.35;5.60;;;17.10;99.90;;;;;;5094213;28;20028;-53
2022/06/04 00:35:47;;;;;;;5.38;4.68;;;17.10;99.90;;;;;;5094217;28;20031;-53
2022/06/04 00:38:15;;;;;;;8.88;6.03;;;17.20;99.90;;;;;;5093821;28;20044;-53
2022/06/04 00:40:44;;;;;;;9.48;6.55;;;17.20;99.90;;;;;;5093790;28;20032;-53
2022/06/04 00:43:09;;;;;;;9.43;6.22;;;17.20;99.90;;;;;;5093927;28;20099;-56
2022/06/04 00:45:35;;;;;;;7.57;6.28;;;17.10;99.90;;;;;;5094171;28;20437;-51
2022/06/04 00:48:04;;;;;;;8.50;7.07;;;17.00;99.90;;;;;;5093788;28;20100;-53
2022/06/04 00:50:32;;;;;;;7.60;6.22;;;17.00;99.90;;;;;;5093723;28;20031;-55
2022/06/04 00:53:03;;;;;;;10.73;6.88;;;17.00;99.90;;;;;;5093713;28;20459;-51
2022/06/04 00:55:45;;;;;;;10.80;6.35;;;17.00;99.90;;;;;;5093797;28;20336;-53
2022/06/04 00:58:57;;;;;;;12.82;6.15;;;16.90;99.90;;;;;;5093669;28;20055;-51
2022/06/04 01:01:27;;;;;;;10.63;6.00;;;16.90;99.90;;;;;;5026857;28;20037;-53
2022/06/04 01:07:21;;;;;;;11.25;6.63;;;16.70;99.90;;;;;;5073247;28;20387;-54
2022/06/04 01:10:00;;;;;;;6.35;5.63;;;16.60;99.90;;;;;;5082550;28;20035;-51
2022/06/04 01:12:50;;;;;;;19.15;5.72;;;16.60;99.90;;;;;;5093168;28;20345;-54
2022/06/04 01:15:16;;;;;;;14.98;6.93;;;16.50;99.90;;;;;;5093430;28;20089;-53
2022/06/04 01:17:50;;;;;;;14.07;5.97;;;16.40;99.90;;;;;;5093427;28;20024;-54
2022/06/04 01:20:50;;;;;;;15.32;5.80;;;16.30;99.90;;;;;;5093093;28;20032;-54
2022/06/04 01:23:24;;;;;;;12.98;7.82;;;16.20;99.90;;;;;;5093300;28;20016;-55
2022/06/04 01:26:43;;;;;;;21.77;7.82;;;16.20;99.90;;;;;;5092610;28;20261;-56
2022/06/04 01:29:17;;;;;;;12.90;6.72;;;16.10;99.90;;;;;;5066083;28;20040;-56
2022/06/04 01:32:29;;;;;;;11.90;7.00;;;16.00;99.90;;;;;;5051090;28;20029;-56
2022/06/04 01:35:04;;;;;;;17.75;6.50;;;16.00;99.90;;;;;;5070399;28;20040;-52
2022/06/04 01:37:39;;;;;;;47.63;8.15;;;15.90;99.90;;;;;;5072782;28;20035;-53
2022/06/04 01:42:56;;;;;;;20.65;7.70;;;15.80;99.90;;;;;;5093127;28;20058;-55
2022/06/04 01:45:24;;;;;;;13.25;7.45;;;15.80;99.90;;;;;;5092892;28;20048;-55
2022/06/04 01:47:52;;;;;;;8.73;6.30;;;15.80;99.90;;;;;;5092766;28;20031;-56
2022/06/04 01:50:22;;;;;;;10.75;5.20;;;15.80;99.90;;;;;;5092417;28;20036;-54
2022/06/04 01:52:49;;;;;;;5.93;5.32;;;15.60;99.90;;;;;;5092853;28;20471;-49
2022/06/04 01:55:25;;;;;;;10.40;5.47;;;15.60;99.90;;;;;;5092201;28;20456;-54
2022/06/04 01:58:03;;;;;;;8.65;6.30;;;15.60;99.90;;;;;;5092525;28;20024;-56
2022/06/04 02:00:44;;;;;;;10.48;5.47;;;15.60;99.90;;;;;;5092303;28;20063;-56
2022/06/04 02:03:27;;;;;;;40.42;6.85;;;15.50;99.90;;;;;;5092424;28;20032;-54
2022/06/04 02:06:05;;;;;;;8.80;5.90;;;15.50;99.90;;;;;;5092433;28;20363;-57
2022/06/04 02:08:44;;;;;;;8.93;4.82;;;15.40;99.90;;;;;;5092516;28;20031;-55
2022/06/04 02:11:11;;;;;;;90.45;7.03;;;15.40;99.90;;;;;;5092182;28;20043;-50
2022/06/04 02:13:38;;;;;;;14.15;5.70;;;15.30;99.90;;;;;;5092220;28;20047;-54
2022/06/04 02:16:16;;;;;;;13.63;6.47;;;15.30;99.90;;;;;;5091783;28;20093;-56
2022/06/04 02:18:42;;;;;;;11.73;5.53;;;15.30;99.90;;;;;;5092379;28;20324;-55
2022/06/04 02:21:07;;;;;;;7.55;5.10;;;15.20;99.90;;;;;;5091712;28;20081;-55
2022/06/04 02:23:35;;;;;;;12.60;6.05;;;15.10;99.90;;;;;;5092173;28;20114;-53
2022/06/04 02:26:01;;;;;;;12.27;5.55;;;15.10;99.90;;;;;;5091955;28;20028;-53
2022/06/04 02:28:28;;;;;;;24.00;5.93;;;15.10;99.90;;;;;;5092199;28;20514;-55
2022/06/04 02:30:59;;;;;;;28.77;5.90;;;15.00;99.90;;;;;;5091534;28;20036;-55
2022/06/04 02:33:49;;;;;;;45.20;7.82;;;15.00;99.90;;;;;;5091730;28;20476;-55
2022/06/04 02:36:25;;;;;;;36.90;8.25;;;14.90;99.90;;;;;;5091900;28;20036;-56
2022/06/04 02:39:20;;;;;;;77.95;8.00;;;14.90;99.90;;;;;;5091602;28;20052;-52
2022/06/04 02:41:52;;;;;;;66.25;7.30;;;14.80;99.90;;;;;;5073625;28;20025;-56
2022/06/04 02:44:38;;;;;;;115.63;8.65;;;14.70;99.90;;;;;;5091423;28;20023;-55
2022/06/04 02:47:26;;;;;;;265.00;11.45;;;14.70;99.90;;;;;;5091565;28;20032;-53
2022/06/04 02:49:58;;;;;;;462.92;20.27;;;14.60;99.90;;;;;;5091626;28;20012;-55
2022/06/04 02:52:24;;;;;;;95.45;7.38;;;14.60;99.90;;;;;;5091459;28;20012;-54
2022/06/04 02:54:55;;;;;;;315.92;15.48;;;14.60;99.90;;;;;;5091657;28;20008;-54
2022/06/04 02:57:24;;;;;;;162.95;9.70;;;14.60;99.90;;;;;;5091729;28;20081;-53
2022/06/04 02:59:52;;;;;;;130.75;7.70;;;14.50;99.90;;;;;;5091611;28;20024;-53
2022/06/04 03:02:19;;;;;;;156.02;8.45;;;14.50;99.90;;;;;;5091430;28;20355;-53
2022/06/04 03:04:52;;;;;;;75.68;6.15;;;14.50;99.90;;;;;;5091571;28;20032;-52
2022/06/04 03:07:22;;;;;;;43.65;6.68;;;14.40;99.90;;;;;;5091581;28;20016;-54
2022/06/04 03:09:56;;;;;;;123.82;7.57;;;14.40;99.90;;;;;;5091711;28;20015;-50
2022/06/04 03:12:21;;;;;;;98.05;7.20;;;14.30;99.90;;;;;;5091396;28;20085;-55
2022/06/04 03:14:47;;;;;;;59.85;6.60;;;14.30;99.90;;;;;;5091558;28;20027;-56
2022/06/04 03:17:13;;;;;;;11.98;5.15;;;14.40;99.90;;;;;;5091330;28;20085;-54
2022/06/04 03:19:39;;;;;;;10.13;4.72;;;14.30;99.90;;;;;;5090788;28;20024;-50
2022/06/04 03:22:05;;;;;;;17.02;4.60;;;14.30;99.90;;;;;;5090712;28;20031;-52
2022/06/04 03:24:31;;;;;;;9.43;4.88;;;14.40;99.90;;;;;;5091328;28;20493;-53
2022/06/04 03:26:56;;;;;;;12.05;5.18;;;14.40;99.90;;;;;;5091235;28;20119;-55
2022/06/04 03:29:22;;;;;;;8.95;4.38;;;14.30;99.90;;;;;;5091309;28;20709;-52
2022/06/04 03:31:48;;;;;;;17.33;5.18;;;14.30;99.90;;;;;;5091192;28;20055;-57
2022/06/04 03:34:15;;;;;;;11.25;5.03;;;14.40;99.90;;;;;;5091189;28;20484;-54
2022/06/04 03:36:41;;;;;;;10.15;5.00;;;14.40;99.90;;;;;;5091383;28;20119;-55
2022/06/04 03:39:08;;;;;;;9.68;4.57;;;14.40;99.90;;;;;;5090605;28;20201;-54
2022/06/04 03:41:35;;;;;;;7.80;4.40;;;14.40;99.90;;;;;;5091181;28;20020;-55
2022/06/04 03:44:00;;;;;;;8.70;4.65;;;14.40;99.90;;;;;;5091134;28;20032;-54
2022/06/04 03:46:27;;;;;;;16.20;4.10;;;14.40;99.90;;;;;;5091255;28;20020;-55
2022/06/04 03:48:53;;;;;;;79.18;6.70;;;14.50;99.90;;;;;;5090954;28;20024;-54
2022/06/04 03:51:20;;;;;;;119.13;6.65;;;14.50;99.90;;;;;;5091198;28;20028;-52
2022/06/04 03:53:47;;;;;;;90.70;7.70;;;14.60;99.90;;;;;;5091486;28;20093;-56
2022/06/04 03:56:12;;;;;;;129.02;6.80;;;14.70;99.90;;;;;;5094732;28;20039;-56
2022/06/04 03:58:38;;;;;;;92.53;7.18;;;14.70;99.90;;;;;;5094512;28;20110;-54
2022/06/04 04:01:16;;;;;;;162.23;7.82;;;14.80;99.90;;;;;;5094165;28;20145;-58
2022/06/04 04:03:42;;;;;;;184.18;8.55;;;14.80;99.90;;;;;;5094237;28;20028;-56
2022/06/04 04:06:15;;;;;;;266.48;12.13;;;14.80;99.90;;;;;;5094357;28;20024;-53
2022/06/04 04:08:41;;;;;;;;;;;15.00;99.90;;;;;;5094789;28;20098;-56
2022/06/04 04:11:12;;;;;;;380.15;19.25;;;15.00;99.90;;;;;;5093996;28;19984;-57
2022/06/04 04:13:39;;;;;;;225.93;9.07;;;15.10;99.90;;;;;;5094199;28;20036;-55
2022/06/04 04:16:06;;;;;;;216.15;9.10;;;15.20;99.90;;;;;;5094213;28;20020;-57
2022/06/04 04:18:32;;;;;;;215.55;8.73;;;15.30;99.90;;;;;;5092563;28;20341;-56
2022/06/04 04:21:02;;;;;;;173.43;7.88;;;15.30;99.90;;;;;;5094318;28;20035;-58
2022/06/04 04:23:27;;;;;;;107.28;6.05;;;15.40;99.90;;;;;;5094484;28;20020;-54
2022/06/04 04:25:53;;;;;;;257.10;9.38;;;15.50;99.90;;;;;;5094260;28;20103;-55
2022/06/04 04:28:19;;;;;;;168.77;7.65;;;15.60;99.90;;;;;;5094287;28;20029;-52
2022/06/04 04:30:45;;;;;;;156.52;8.35;;;15.60;99.90;;;;;;5094207;28;20028;-52
2022/06/04 04:33:10;;;;;;;120.68;7.38;;;15.70;99.90;;;;;;5094159;28;20123;-57
2022/06/04 04:35:36;;;;;;;126.40;6.72;;;15.80;99.90;;;;;;5092700;28;20128;-53
2022/06/04 04:38:02;;;;;;;140.98;8.82;;;15.80;99.90;;;;;;5093974;28;20043;-55
2022/06/04 04:40:29;;;;;;;180.50;8.07;;;15.90;99.90;;;;;;5093860;28;20036;-57
2022/06/04 04:42:55;;;;;;;74.03;7.55;;;15.90;99.90;;;;;;5093814;28;20021;-53
2022/06/04 04:45:24;;;;;;;165.38;7.47;;;16.10;99.90;;;;;;5093951;28;20089;-58
2022/06/04 04:47:50;;;;;;;132.80;7.10;;;16.10;99.90;;;;;;5093944;28;20024;-54
2022/06/04 04:50:31;;;;;;;114.28;6.68;;;16.20;99.90;;;;;;5093563;28;20032;-55
2022/06/04 04:52:58;;;;;;;69.20;4.82;;;16.20;99.90;;;;;;5093789;28;20073;-57
2022/06/04 04:55:24;;;;;;;83.45;5.60;;;16.30;99.90;;;;;;5093950;28;20389;-55
2022/06/04 04:57:50;;;;;;;62.95;5.15;;;16.40;99.90;;;;;;5093590;28;20039;-55
2022/06/04 05:00:17;;;;;;;30.95;4.63;;;16.50;99.90;;;;;;5093142;28;20032;-53
2022/06/04 05:02:44;;;;;;;4.20;2.90;;;16.60;99.90;;;;;;5092223;28;20076;-57
2022/06/04 05:05:11;;;;;;;13.00;2.80;;;16.90;99.90;;;;;;5091948;28;20024;-57
2022/06/04 05:07:37;;;;;;;5.75;2.83;;;17.00;99.90;;;;;;5092222;28;20076;-51
2022/06/04 05:10:03;;;;;;;15.25;3.75;;;17.00;99.90;;;;;;5091853;28;20541;-51
2022/06/04 05:12:30;;;;;;;3.30;3.10;;;17.10;99.90;;;;;;5093140;28;20107;-52
2022/06/04 05:14:55;;;;;;;5.32;3.30;;;17.10;99.90;;;;;;5092500;28;20020;-55
2022/06/04 05:17:21;;;;;;;6.40;2.83;;;17.20;99.90;;;;;;5091150;28;20043;-53
2022/06/04 05:19:47;;;;;;;3.55;3.00;;;17.40;99.90;;;;;;5092303;28;20028;-55
2022/06/04 05:22:12;;;;;;;6.43;2.58;;;17.40;99.90;;;;;;5092041;28;20027;-51
2022/06/04 05:24:38;;;;;;;4.35;3.95;;;17.60;99.90;;;;;;5092983;28;20020;-58
2022/06/04 05:27:07;;;;;;;4.40;3.35;;;17.50;99.90;;;;;;5092992;28;20019;-53
2022/06/04 05:29:34;;;;;;;3.40;3.10;;;17.50;99.90;;;;;;5092837;28;20013;-56
2022/06/04 05:32:02;;;;;;;4.07;3.33;;;17.60;99.90;;;;;;5092926;28;20065;-55
2022/06/04 05:34:28;;;;;;;3.10;2.75;;;17.60;99.90;;;;;;5093143;28;20031;-56
2022/06/04 05:36:54;;;;;;;3.30;3.03;;;17.70;99.90;;;;;;5092806;28;20107;-55
2022/06/04 05:39:21;;;;;;;3.40;3.10;;;17.70;99.90;;;;;;5092612;28;20055;-55
2022/06/04 05:41:46;;;;;;;7.57;3.88;;;17.70;99.90;;;;;;5092853;28;20024;-53
2022/06/04 05:44:13;;;;;;;4.57;3.85;;;17.60;99.90;;;;;;5092783;28;20013;-53
2022/06/04 05:46:42;;;;;;;3.97;3.58;;;17.50;99.90;;;;;;5092897;28;20012;-54
2022/06/04 05:49:14;;;;;;;6.28;4.10;;;17.50;99.90;;;;;;5092361;28;20024;-55
2022/06/04 05:51:42;;;;;;;6.93;4.20;;;17.40;99.90;;;;;;5092857;28;20036;-54
2022/06/04 05:54:09;;;;;;;4.80;4.07;;;17.40;99.90;;;;;;5092569;28;20294;-56
2022/06/04 05:56:38;;;;;;;4.32;3.90;;;17.40;99.90;;;;;;5092486;28;20047;-56
2022/06/04 05:59:11;;;;;;;5.05;3.65;;;17.40;99.90;;;;;;5092117;28;20032;-51
2022/06/04 06:01:38;;;;;;;3.92;3.58;;;17.50;99.90;;;;;;5092114;28;20044;-53
2022/06/04 06:04:06;;;;;;;4.18;3.88;;;17.60;99.90;;;;;;5091457;28;20463;-54
2022/06/04 06:06:34;;;;;;;5.07;3.97;;;17.70;99.90;;;;;;5091554;28;20016;-57
2022/06/04 06:09:04;;;;;;;4.97;4.50;;;17.80;99.90;;;;;;5090879;28;20069;-55
2022/06/04 06:11:30;;;;;;;5.50;4.68;;;17.80;99.90;;;;;;5091328;28;20020;-55
2022/06/04 06:13:56;;;;;;;10.35;4.32;;;17.90;99.90;;;;;;5091126;28;20024;-54
2022/06/04 06:16:31;;;;;;;8.32;5.75;;;18.00;99.90;;;;;;5091525;28;20024;-57
2022/06/04 06:18:58;;;;;;;8.23;4.88;;;18.00;99.90;;;;;;5089916;28;20036;-56
2022/06/04 06:21:30;;;;;;;7.22;4.65;;;18.20;99.90;;;;;;5091324;28;20028;-57
2022/06/04 06:23:57;;;;;;;5.07;4.20;;;18.30;99.90;;;;;;5090978;28;20032;-54
2022/06/04 06:26:26;;;;;;;9.10;4.03;;;18.50;99.90;;;;;;5091342;28;20020;-55
2022/06/04 06:28:52;;;;;;;7.50;4.40;;;18.60;99.90;;;;;;5090696;28;20024;-56
2022/06/04 06:31:24;;;;;;;7.57;4.35;;;18.60;99.90;;;;;;5090945;28;20039;-55
2022/06/04 06:33:50;;;;;;;6.35;3.47;;;18.80;99.90;;;;;;5091360;28;20103;-58
2022/06/04 06:36:18;;;;;;;6.57;3.47;;;18.90;99.90;;;;;;5092103;28;20102;-55
2022/06/04 06:38:45;;;;;;;6.40;3.20;;;19.00;99.90;;;;;;5091411;28;20040;-55
2022/06/04 06:41:12;;;;;;;5.05;3.10;;;19.20;99.90;;;;;;5090724;28;20031;-54
2022/06/04 06:43:38;;;;;;;11.48;3.13;;;19.40;99.90;;;;;;5090657;28;20042;-55
2022/06/04 06:46:15;;;;;;;3.83;2.92;;;19.50;99.90;;;;;;5090578;28;20077;-57
2022/06/04 06:48:42;;;;;;;4.40;3.08;;;19.40;99.90;;;;;;5090530;28;20127;-52
2022/06/04 06:51:24;;;;;;;6.15;3.10;;;19.40;99.90;;;;;;5090264;28;20127;-56
2022/06/04 06:53:50;;;;;;;5.82;3.28;;;19.60;99.90;;;;;;5090382;28;20023;-54
2022/06/04 06:56:22;;;;;;;6.07;3.40;;;19.60;99.90;;;;;;5090851;28;20348;-52
2022/06/04 06:58:48;;;;;;;10.05;3.70;;;19.70;99.90;;;;;;5089765;28;20391;-56
2022/06/04 07:01:14;;;;;;;5.63;3.38;;;19.70;99.90;;;;;;5089886;28;20028;-57
2022/06/04 07:03:41;;;;;;;3.70;3.13;;;19.80;99.90;;;;;;5090261;28;20027;-54
2022/06/04 07:06:09;;;;;;;6.03;3.25;;;19.80;99.90;;;;;;5090609;28;20020;-53
2022/06/04 07:08:35;;;;;;;8.90;3.90;;;19.80;99.90;;;;;;5087381;28;20020;-56
2022/06/04 07:11:01;;;;;;;5.82;3.85;;;19.80;99.90;;;;;;5080658;28;20076;-53
2022/06/04 07:13:27;;;;;;;7.22;3.88;;;20.00;99.90;;;;;;5080420;28;20021;-53
2022/06/04 07:15:53;;;;;;;5.28;3.80;;;20.20;99.90;;;;;;5080291;28;20024;-50
2022/06/04 07:18:19;;;;;;;9.52;4.15;;;20.30;99.90;;;;;;5082251;28;20051;-50
2022/06/04 07:20:45;;;;;;;10.60;3.83;;;20.40;99.90;;;;;;5080182;28;20039;-52
2022/06/04 07:23:11;;;;;;;6.72;4.03;;;20.40;99.90;;;;;;5080744;28;20103;-51
2022/06/04 07:25:40;;;;;;;6.20;4.68;;;20.50;99.90;;;;;;5084726;28;20048;-54
2022/06/04 07:28:06;;;;;;;9.50;4.30;;;20.60;99.90;;;;;;5091149;28;20024;-51
2022/06/04 07:30:32;;;;;;;8.85;4.63;;;20.70;99.90;;;;;;5095024;28;20031;-53
2022/06/04 07:32:58;;;;;;;5.97;4.35;;;20.60;99.90;;;;;;5094800;28;20027;-53
2022/06/04 07:35:24;;;;;;;6.15;3.95;;;20.80;99.90;;;;;;5094307;28;20043;-55
2022/06/04 07:37:49;;;;;;;9.50;4.30;;;21.00;99.90;;;;;;5088378;28;20028;-56
2022/06/04 07:40:15;;;;;;;5.30;4.28;;;21.10;99.90;;;;;;5080669;28;20075;-56
2022/06/04 07:42:42;;;;;;;6.57;4.45;;;21.20;99.90;;;;;;5095273;28;20051;-57
2022/06/04 07:45:08;;;;;;;9.80;4.05;;;21.30;99.90;;;;;;5094996;28;20020;-56
2022/06/04 07:47:35;;;;;;;4.70;3.30;;;21.50;99.90;;;;;;5095161;28;20008;-56
2022/06/04 07:50:01;;;;;;;9.70;3.88;;;21.60;99.90;;;;;;5095076;28;20022;-57
2022/06/04 07:52:27;;;;;;;5.38;3.47;;;21.70;99.90;;;;;;5094804;28;20024;-55
2022/06/04 07:54:53;;;;;;;8.88;4.00;;;21.70;99.90;;;;;;5094479;28;20020;-54
2022/06/04 07:57:19;;;;;;;3.78;3.15;;;21.50;99.90;;;;;;5094868;28;20485;-56
2022/06/04 07:59:45;;;;;;;6.85;3.97;;;21.40;99.90;;;;;;5094756;28;20031;-56
2022/06/04 08:02:12;;;;;;;8.88;3.30;;;21.60;99.90;;;;;;5094436;28;20407;-55
2022/06/04 08:04:38;;;;;;;4.72;3.03;;;22.00;99.90;;;;;;5094564;28;20020;-53
2022/06/04 08:07:05;;;;;;;5.60;3.15;;;22.20;99.90;;;;;;5094510;28;20021;-55
2022/06/04 08:09:32;;;;;;;10.68;3.33;;;22.20;99.90;;;;;;5094442;28;20391;-52
2022/06/04 08:11:58;;;;;;;7.72;3.08;;;22.40;99.90;;;;;;5094365;28;20032;-57
2022/06/04 08:14:25;;;;;;;7.00;2.28;;;22.20;99.90;;;;;;5094701;28;20034;-55
2022/06/04 08:16:53;;;;;;;4.72;2.78;;;22.30;99.90;;;;;;5094566;28;20049;-51
2022/06/04 08:19:21;;;;;;;6.75;3.45;;;22.60;99.90;;;;;;5094519;28;20024;-54
2022/06/04 08:21:47;;;;;;;6.20;2.78;;;22.80;99.90;;;;;;5094188;28;20026;-53
2022/06/04 08:24:14;;;;;;;6.13;2.85;;;22.80;99.90;;;;;;5094456;28;20091;-53
2022/06/04 08:26:45;;;;;;;5.80;3.08;;;22.90;99.90;;;;;;5093507;28;20016;-55
2022/06/04 08:29:12;;;;;;;13.50;4.70;;;22.90;99.90;;;;;;5092969;28;20024;-55
2022/06/04 08:31:39;;;;;;;5.80;2.95;;;23.10;99.90;;;;;;5093038;28;20116;-52
2022/06/04 08:34:05;;;;;;;10.32;4.22;;;23.30;99.90;;;;;;5093040;28;20390;-55
2022/06/04 08:36:31;;;;;;;9.60;3.90;;;23.40;99.90;;;;;;5096461;28;20023;-56
2022/06/04 08:38:57;;;;;;;7.50;3.92;;;23.50;99.90;;;;;;5088313;28;20376;-55
2022/06/04 08:41:38;;;;;;;10.93;4.13;;;23.60;99.90;;;;;;5092023;28;20039;-56
2022/06/04 08:44:28;;;;;;;13.93;3.90;;;23.50;99.90;;;;;;5093329;28;20020;-55
2022/06/04 08:47:00;;;;;;;5.43;2.65;;;23.60;99.90;;;;;;5087228;28;20021;-55
2022/06/04 08:49:33;;;;;;;5.25;3.40;;;23.90;99.90;;;;;;5093459;28;20387;-54
2022/06/04 08:52:02;;;;;;;4.10;2.45;;;23.90;99.90;;;;;;5093329;28;20025;-55
2022/06/04 08:57:32;;;;;;;8.75;3.25;;;24.00;99.90;;;;;;5093174;28;20173;-55
2022/06/04 09:00:06;;;;;;;8.77;3.17;;;24.10;99.90;;;;;;5072778;28;20032;-55
2022/06/04 09:03:00;;;;;;;11.10;3.05;;;24.10;99.90;;;;;;5072969;28;20023;-55
2022/06/04 09:05:50;;;;;;;8.77;3.10;;;24.10;99.90;;;;;;5073462;28;20082;-54
2022/06/04 09:08:36;;;;;;;3.67;2.53;;;24.10;99.90;;;;;;5080967;28;20028;-55
2022/06/04 09:11:05;;;;;;;4.82;2.97;;;24.60;99.90;;;;;;5093257;28;20058;-54
2022/06/04 09:13:45;;;;;;;6.57;3.00;;;24.90;99.90;;;;;;5093332;28;20028;-55
2022/06/04 09:16:32;;;;;;;7.97;2.97;;;24.90;99.90;;;;;;5093223;28;20028;-54
2022/06/04 09:19:02;;;;;;;4.47;2.45;;;25.10;99.90;;;;;;5092930;28;20120;-54
2022/06/04 09:21:35;;;;;;;2.97;2.10;;;25.00;99.90;;;;;;5093093;28;20479;-55
2022/06/04 09:24:00;;;;;;;3.60;2.28;;;25.10;99.90;;;;;;5092936;28;20030;-55
2022/06/04 09:26:49;;;;;;;5.70;1.40;;;25.40;99.90;;;;;;5093278;28;20021;-56
2022/06/04 09:29:56;;;;;;;3.92;1.90;;;25.30;99.90;;;;;;5092721;28;20027;-55
2022/06/04 09:32:48;;;;;;;5.07;1.60;;;25.40;98.90;;;;;;5058557;28;20040;-56
2022/06/04 09:35:22;;;;;;;4.72;1.75;;;25.80;98.80;;;;;;5091538;28;20023;-55
2022/06/04 09:37:51;;;;;;;4.80;2.22;;;26.30;98.30;;;;;;5091066;28;20020;-54
2022/06/04 09:40:29;;;;;;;4.13;1.60;;;26.60;98.90;;;;;;5092912;28;20036;-55
2022/06/04 09:43:14;;;;;;;4.00;2.00;;;26.90;98.50;;;;;;5092877;28;20432;-55
2022/06/04 09:45:41;;;;;;;4.57;2.35;;;26.60;97.20;;;;;;5092866;28;20024;-53
2022/06/04 09:48:37;;;;;;;4.68;2.35;;;26.60;98.40;;;;;;5092463;28;20046;-54
2022/06/04 09:51:14;;;;;;;7.75;2.10;;;27.00;98.50;;;;;;5091254;28;20060;-54
2022/06/04 09:53:46;;;;;;;4.90;2.22;;;27.50;97.40;;;;;;5092660;28;20043;-56
2022/06/04 09:56:15;;;;;;;5.28;2.42;;;27.80;97.30;;;;;;5092617;28;20029;-55
2022/06/04 09:58:44;;;;;;;3.63;1.80;;;28.30;98.30;;;;;;5092328;28;20055;-56
2022/06/04 10:01:22;;;;;;;3.17;2.22;;;28.40;96.80;;;;;;5092351;28;20039;-55
2022/06/04 10:04:00;;;;;;;5.97;2.45;;;28.80;95.90;;;;;;5092252;28;20028;-56
2022/06/04 10:06:27;;;;;;;4.30;2.10;;;29.00;95.40;;;;;;5092402;28;20032;-55
2022/06/04 10:11:49;;;;;;;5.10;1.98;;;29.50;94.70;;;;;;5092796;28;20047;-56
2022/06/04 10:14:15;;;;;;;3.95;2.35;;;30.10;93.50;;;;;;5090314;28;20242;-56
2022/06/04 10:16:45;;;;;;;5.05;1.90;;;29.60;93.70;;;;;;5092276;28;20111;-56
2022/06/04 10:19:18;;;;;;;5.38;2.17;;;30.20;92.80;;;;;;5091916;28;20026;-56
2022/06/04 10:21:46;;;;;;;7.25;2.15;;;29.80;90.80;;;;;;5092052;28;20024;-54
2022/06/04 10:24:17;;;;;;;5.25;2.30;;;29.50;91.70;;;;;;5091945;28;20032;-56
2022/06/04 10:27:15;;;;;;;7.40;1.90;;;30.00;93.20;;;;;;5091962;28;20109;-56
2022/06/04 10:30:09;;;;;;;3.17;1.98;;;29.80;92.70;;;;;;5091599;28;20029;-55
2022/06/04 10:32:44;;;;;;;5.47;1.90;;;29.70;90.50;;;;;;5091441;28;20024;-56
2022/06/04 10:35:29;;;;;;;6.03;1.92;;;29.20;90.20;;;;;;5090650;28;20032;-57
2022/06/04 10:38:30;;;;;;;6.00;2.45;;;29.30;90.60;;;;;;5090317;28;20348;-55
2022/06/04 10:41:04;;;;;;;8.60;2.40;;;29.70;90.30;;;;;;5086099;28;20165;-56
2022/06/04 10:43:50;;;;;;;13.20;2.45;;;29.30;90.60;;;;;;5091161;28;20337;-58
2022/06/04 10:46:33;;;;;;;7.15;2.33;;;29.30;90.50;;;;;;5090667;28;20020;-57
2022/06/04 10:49:14;;;;;;;;;;;29.30;90.20;;;;;;5090845;28;20046;-57
2022/06/04 10:51:52;;;;;;;4.75;1.85;;;28.90;90.30;;;;;;5090434;28;19925;-55
2022/06/04 10:54:51;;;;;;;6.47;2.50;;;28.80;93.10;;;;;;5091025;28;20028;-56
2022/06/04 10:57:35;;;;;;;4.60;2.22;;;29.40;94.10;;;;;;5091256;28;20024;-57
2022/06/04 11:00:09;;;;;;;7.75;2.70;;;29.60;92.70;;;;;;5091440;28;20020;-57
2022/06/04 11:02:46;;;;;;;4.10;2.08;;;29.90;93.30;;;;;;5091491;28;20482;-56
2022/06/04 11:05:36;;;;;;;9.00;3.40;;;30.10;92.70;;;;;;5090665;28;20016;-56
2022/06/04 11:08:05;;;;;;;3.20;2.20;;;30.30;91.80;;;;;;5080404;28;20422;-57
2022/06/04 11:10:37;;;;;;;5.15;2.35;;;30.50;89.20;;;;;;5090342;28;20119;-54
2022/06/04 11:13:30;;;;;;;20.98;11.73;;;29.90;91.80;;;;;;5091518;28;20016;-56
2022/06/04 11:16:14;;;;;;;10.43;5.05;;;29.70;90.80;;;;;;5091068;28;20507;-56
2022/06/04 11:18:50;;;;;;;9.35;3.63;;;29.60;90.90;;;;;;5091809;28;20035;-55
2022/06/04 11:21:30;;;;;;;7.95;2.85;;;29.00;91.20;;;;;;5091373;28;20486;-56
2022/06/04 11:24:05;;;;;;;7.97;2.22;;;29.60;90.90;;;;;;5091396;28;20059;-55
2022/06/04 11:26:52;;;;;;;6.07;2.85;;;29.30;90.80;;;;;;5091281;28;20027;-55
2022/06/04 11:29:18;;;;;;;7.15;4.03;;;29.20;90.10;;;;;;5091092;28;20024;-57
2022/06/04 11:31:50;;;;;;;7.03;3.92;;;29.40;90.20;;;;;;5091363;28;20119;-55
2022/06/04 11:34:37;;;;;;;6.63;2.65;;;29.20;90.90;;;;;;5090646;28;20035;-56
2022/06/04 11:37:21;;;;;;;8.52;2.90;;;29.20;89.90;;;;;;5091084;28;20432;-57
2022/06/04 11:39:55;;;;;;;6.55;1.88;;;29.10;87.00;;;;;;5090988;28;20166;-56
2022/06/04 11:42:49;;;;;;;5.78;3.00;;;29.20;89.40;;;;;;5091389;28;20020;-56
2022/06/04 11:45:35;;;;;;;4.60;2.35;;;29.70;88.90;;;;;;5090955;28;20017;-54
2022/06/04 11:48:15;;;;;;;4.15;1.70;;;30.20;87.10;;;;;;5091062;28;20046;-56
2022/06/04 11:51:15;;;;;;;4.20;2.47;;;30.40;87.70;;;;;;5091358;28;20541;-57
2022/06/04 11:53:54;;;;;;;5.70;3.00;;;30.20;90.00;;;;;;5071243;28;20530;-57
2022/06/04 11:56:34;;;;;;;6.07;3.97;;;30.50;89.00;;;;;;5081034;28;20717;-57
2022/06/04 11:59:12;;;;;;;6.28;2.78;;;30.50;86.00;;;;;;5090587;28;20036;-56
2022/06/04 12:01:53;;;;;;;8.75;2.28;;;30.60;84.60;;;;;;5091357;28;20025;-56
2022/06/04 12:04:32;;;;;;;5.18;2.45;;;30.80;82.10;;;;;;5091089;28;20449;-56
2022/06/04 12:07:08;;;;;;;8.70;2.22;;;31.10;83.40;;;;;;5090670;28;20157;-57
2022/06/04 12:09:54;;;;;;;12.32;2.75;;;31.10;83.00;;;;;;5090982;28;20026;-56
2022/06/04 12:12:25;;;;;;;14.27;2.40;;;31.70;82.90;;;;;;5091000;28;20020;-56
2022/06/04 12:15:13;;;;;;;4.80;1.83;;;32.30;79.30;;;;;;5090971;28;20081;-56
2022/06/04 12:17:51;;;;;;;5.88;2.55;;;32.60;77.60;;;;;;5074128;28;20021;-57
2022/06/04 12:26:37;;;;;;;4.25;1.83;;;34.10;71.10;;;;;;5011940;28;20052;-57
2022/06/04 12:29:28;;;;;;;11.00;2.20;;;33.80;65.20;;;;;;5093175;28;20040;-58
2022/06/04 12:31:57;;;;;;;6.90;1.88;;;35.80;63.60;;;;;;5094070;28;20082;-57
2022/06/04 12:34:41;;;;;;;9.10;1.98;;;35.50;67.80;;;;;;5094178;28;20032;-58
2022/06/04 12:37:26;;;;;;;9.88;2.20;;;35.40;62.60;;;;;;5093820;28;20379;-57
2022/06/04 12:39:51;;;;;;;6.25;2.08;;;35.40;64.10;;;;;;5078007;28;20040;-57
2022/06/04 12:42:21;;;;;;;4.50;1.60;;;35.90;60.10;;;;;;5082928;28;20461;-58
2022/06/04 12:45:00;;;;;;;5.78;2.00;;;35.70;57.20;;;;;;5080709;28;20031;-58
2022/06/04 12:47:31;;;;;;;10.32;2.70;;;35.40;57.10;;;;;;5072700;28;20028;-58
2022/06/04 12:50:04;;;;;;;3.30;1.40;;;35.40;61.10;;;;;;5066888;28;20024;-58
2022/06/04 12:53:06;;;;;;;5.05;1.90;;;36.90;56.80;;;;;;5075203;28;20036;-58
2022/06/04 12:55:49;;;;;;;10.20;2.22;;;36.20;54.40;;;;;;5081430;28;20127;-58
2022/06/04 12:58:35;;;;;;;11.75;2.53;;;36.40;52.50;;;;;;5080495;28;20051;-59
2022/06/04 13:01:15;;;;;;;9.60;1.70;;;35.70;54.70;;;;;;5082594;28;20042;-59
2022/06/04 13:03:42;;;;;;;5.40;1.80;;;35.70;59.70;;;;;;5082052;28;20031;-59
2022/06/04 13:06:32;;;;;;;3.65;1.55;;;36.60;56.40;;;;;;5082023;28;20135;-58
2022/06/04 13:09:04;;;;;;;12.27;1.80;;;36.20;54.00;;;;;;5081962;28;20020;-58
2022/06/04 13:11:37;;;;;;;;;;;36.10;55.50;;;;;;5083271;28;20036;-59
2022/06/04 13:14:22;;;;;;;9.82;1.95;;;36.10;55.00;;;;;;5082728;28;19912;-59
2022/06/04 13:16:55;;;;;;;9.18;1.77;;;36.20;53.00;;;;;;5082832;28;20032;-59
2022/06/04 13:19:29;;;;;;;6.55;1.60;;;36.90;53.10;;;;;;5082832;28;20024;-58
2022/06/04 13:21:59;;;;;;;4.82;1.77;;;36.60;49.80;;;;;;5081938;28;20078;-59
2022/06/04 13:24:27;;;;;;;7.00;1.73;;;37.00;52.00;;;;;;5082495;28;20028;-58
2022/06/04 13:27:02;;;;;;;4.85;1.42;;;37.80;51.50;;;;;;5081484;28;20043;-59
2022/06/04 13:29:30;;;;;;;5.18;1.42;;;37.90;53.00;;;;;;5081161;28;20035;-59
2022/06/04 13:31:56;;;;;;;15.88;2.03;;;37.50;50.10;;;;;;5082029;28;20035;-59
2022/06/04 13:34:26;;;;;;;18.05;2.65;;;37.50;50.80;;;;;;5082613;28;20024;-59